sensor_id;sensor_type;location;lat;lon;timestamp;P1;P2;P0
55591;PMS5003;41454;53.396;-1.510;2022-11-12T09:50:42;7;7;
55591;PMS5003;41454;53.396;-1.510;2022-11-12T09:53:17;12;10;
55591;PMS5003;41454;53.396;-1.510;2022-11-12T09:55:48;13;12;
55591;PMS5003;41454;53.396;-1.510;2022-11-12T09:58:19;10;10;
55591;PMS5003;41454;53.396;-1.510;2022-11-12T10:00:50;10;10;
55591;PMS5003;41454;53.396;-1.510;2022-11-12T10:03:23;9;9;
55591;PMS5003;41454;53.396;-1.510;2022-11-12T10:06:00;9;9;
55591;PMS5003;41454;53.396;-1.510;2022-11-12T10:08:37;10;10;
55591;PMS5003;41454;53.396;-1.510;2022-11-12T10:11:49;9;9;
55591;PMS5003;41454;53.396;-1.510;2022-11-12T10:14:30;8;8;
55591;PMS5003;41454;53.396;-1.510;2022-11-12T10:17:08;11;11;
55591;PMS5003;41454;53.396;-1.510;2022-11-12T10:19:45;12;12;
55591;PMS5003;41454;53.396;-1.510;2022-11-12T10:22:27;11;11;
55591;PMS5003;41454;53.396;-1.510;2022-11-12T10:25:09;11;10;
55591;PMS5003;41454;53.396;-1.510;2022-11-12T10:27:40;12;12;
55591;PMS5003;41454;53.396;-1.510;2022-11-12T10:30:12;10;10;
55591;PMS5003;41454;53.396;-1.510;2022-11-12T10:32:42;12;12;
55591;PMS5003;41454;53.396;-1.510;2022-11-12T10:35:11;15;13;
55591;PMS5003;41454;53.396;-1.510;2022-11-12T10:37:41;14;14;
55591;PMS5003;41454;53.396;-1.510;2022-11-12T10:40:31;15;14;
55591;PMS5003;41454;53.396;-1.510;2022-11-12T10:43:01;13;13;
55591;PMS5003;41454;53.396;-1.510;2022-11-12T10:45:30;14;14;
55591;PMS5003;41454;53.396;-1.510;2022-11-12T10:47:57;15;15;
55591;PMS5003;41454;53.396;-1.510;2022-11-12T10:50:27;17;16;
55591;PMS5003;41454;53.396;-1.510;2022-11-12T10:52:59;23;19;
55591;PMS5003;41454;53.396;-1.510;2022-11-12T10:55:28;22;19;
55591;PMS5003;41454;53.396;-1.510;2022-11-12T10:58:04;19;18;
55591;PMS5003;41454;53.396;-1.510;2022-11-12T11:00:33;24;23;
55591;PMS5003;41454;53.396;-1.510;2022-11-12T11:03:01;23;21;
55591;PMS5003;41454;53.396;-1.510;2022-11-12T11:05:33;21;21;
55591;PMS5003;41454;53.396;-1.510;2022-11-12T11:08:03;24;23;
55591;PMS5003;41454;53.396;-1.510;2022-11-12T11:10:31;31;29;
55591;PMS5003;41454;53.396;-1.510;2022-11-12T11:13:07;32;32;
55591;PMS5003;41454;53.396;-1.510;2022-11-12T11:15:43;32;28;
55591;PMS5003;41454;53.396;-1.510;2022-11-12T11:18:25;30;30;
55591;PMS5003;41454;53.396;-1.510;2022-11-12T11:20:54;33;30;
55591;PMS5003;41454;53.396;-1.510;2022-11-12T11:23:31;40;37;
55591;PMS5003;41454;53.396;-1.510;2022-11-12T11:26:06;34;33;
55591;PMS5003;41454;53.396;-1.510;2022-11-12T11:28:49;34;33;
55591;PMS5003;41454;53.396;-1.510;2022-11-12T11:31:27;32;31;
55591;PMS5003;41454;53.396;-1.510;2022-11-12T11:34:05;32;32;
55591;PMS5003;41454;53.396;-1.510;2022-11-12T11:36:45;31;30;
55591;PMS5003;41454;53.396;-1.510;2022-11-12T11:39:21;34;31;
55591;PMS5003;41454;53.396;-1.510;2022-11-12T11:41:58;27;27;
55591;PMS5003;41454;53.396;-1.510;2022-11-12T11:44:40;24;24;
55591;PMS5003;41454;53.396;-1.510;2022-11-12T11:47:16;27;27;
55591;PMS5003;41454;53.396;-1.510;2022-11-12T11:50:04;23;21;
55591;PMS5003;41454;53.396;-1.510;2022-11-12T11:52:43;24;24;
55591;PMS5003;41454;53.396;-1.510;2022-11-12T11:55:21;23;22;
55591;PMS5003;41454;53.396;-1.510;2022-11-12T11:58:03;20;20;
55591;PMS5003;41454;53.396;-1.510;2022-11-12T12:00:39;25;25;
55591;PMS5003;41454;53.396;-1.510;2022-11-12T12:03:17;26;23;
55591;PMS5003;41454;53.396;-1.510;2022-11-12T12:05:50;26;24;
55591;PMS5003;41454;53.396;-1.510;2022-11-12T12:08:34;24;24;
55591;PMS5003;41454;53.396;-1.510;2022-11-12T12:11:14;21;21;
55591;PMS5003;41454;53.396;-1.510;2022-11-12T12:13:51;31;27;
55591;PMS5003;41454;53.396;-1.510;2022-11-12T12:16:31;26;24;
55591;PMS5003;41454;53.396;-1.510;2022-11-12T12:19:10;25;24;
55591;PMS5003;41454;53.396;-1.510;2022-11-12T12:21:47;25;24;
55591;PMS5003;41454;53.396;-1.510;2022-11-12T12:24:17;31;30;
55591;PMS5003;41454;53.396;-1.510;2022-11-12T12:26:50;28;25;
55591;PMS5003;41454;53.396;-1.510;2022-11-12T12:29:23;28;26;
55591;PMS5003;41454;53.396;-1.510;2022-11-12T12:31:57;25;22;
55591;PMS5003;41454;53.396;-1.510;2022-11-12T12:34:33;29;28;
55591;PMS5003;41454;53.396;-1.510;2022-11-12T12:37:06;26;26;
55591;PMS5003;41454;53.396;-1.510;2022-11-12T12:39:42;25;25;
55591;PMS5003;41454;53.396;-1.510;2022-11-12T12:42:19;28;25;
55591;PMS5003;41454;53.396;-1.510;2022-11-12T12:44:53;30;28;
55591;PMS5003;41454;53.396;-1.510;2022-11-12T12:47:25;32;27;
55591;PMS5003;41454;53.396;-1.510;2022-11-12T12:49:53;32;26;
55591;PMS5003;41454;53.396;-1.510;2022-11-12T12:52:22;28;27;
55591;PMS5003;41454;53.396;-1.510;2022-11-12T12:54:56;30;26;
55591;PMS5003;41454;53.396;-1.510;2022-11-12T12:57:28;23;22;
55591;PMS5003;41454;53.396;-1.510;2022-11-12T13:00:32;28;26;
55591;PMS5003;41454;53.396;-1.510;2022-11-12T13:03:03;35;34;
55591;PMS5003;41454;53.396;-1.510;2022-11-12T13:05:31;36;34;
55591;PMS5003;41454;53.396;-1.510;2022-11-12T13:08:01;34;32;
55591;PMS5003;41454;53.396;-1.510;2022-11-12T13:10:52;35;32;
55591;PMS5003;41454;53.396;-1.510;2022-11-12T13:13:24;37;35;
55591;PMS5003;41454;53.396;-1.510;2022-11-12T13:15:54;39;34;
55591;PMS5003;41454;53.396;-1.510;2022-11-12T13:18:55;35;32;
55591;PMS5003;41454;53.396;-1.510;2022-11-12T13:21:27;36;35;
55591;PMS5003;41454;53.396;-1.510;2022-11-12T13:23:55;34;33;
55591;PMS5003;41454;53.396;-1.510;2022-11-12T13:26:56;33;31;
55591;PMS5003;41454;53.396;-1.510;2022-11-12T13:29:44;39;38;
55591;PMS5003;41454;53.396;-1.510;2022-11-12T13:32:30;39;35;
55591;PMS5003;41454;53.396;-1.510;2022-11-12T13:35:32;36;32;
55591;PMS5003;41454;53.396;-1.510;2022-11-12T13:38:02;35;35;
55591;PMS5003;41454;53.396;-1.510;2022-11-12T13:40:39;36;33;
55591;PMS5003;41454;53.396;-1.510;2022-11-12T13:43:15;38;35;
55591;PMS5003;41454;53.396;-1.510;2022-11-12T13:45:48;32;30;
55591;PMS5003;41454;53.396;-1.510;2022-11-12T13:48:20;36;34;
55591;PMS5003;41454;53.396;-1.510;2022-11-12T13:50:52;34;34;
55591;PMS5003;41454;53.396;-1.510;2022-11-12T13:53:23;34;29;
55591;PMS5003;41454;53.396;-1.510;2022-11-12T13:55:59;34;33;
55591;PMS5003;41454;53.396;-1.510;2022-11-12T13:58:28;34;31;
55591;PMS5003;41454;53.396;-1.510;2022-11-12T14:00:56;27;25;
55591;PMS5003;41454;53.396;-1.510;2022-11-12T14:03:27;31;27;
55591;PMS5003;41454;53.396;-1.510;2022-11-12T14:06:01;26;25;
55591;PMS5003;41454;53.396;-1.510;2022-11-12T14:08:37;32;32;
55591;PMS5003;41454;53.396;-1.510;2022-11-12T14:11:22;31;30;
55591;PMS5003;41454;53.396;-1.510;2022-11-12T14:14:28;28;26;
55591;PMS5003;41454;53.396;-1.510;2022-11-12T14:17:13;25;24;
55591;PMS5003;41454;53.396;-1.510;2022-11-12T14:19:54;24;23;
55591;PMS5003;41454;53.396;-1.510;2022-11-12T14:22:47;29;26;
55591;PMS5003;41454;53.396;-1.510;2022-11-12T14:25:16;26;25;
55591;PMS5003;41454;53.396;-1.510;2022-11-12T14:27:45;25;24;
55591;PMS5003;41454;53.396;-1.510;2022-11-12T14:30:16;29;26;
55591;PMS5003;41454;53.396;-1.510;2022-11-12T14:32:45;30;29;
55591;PMS5003;41454;53.396;-1.510;2022-11-12T14:35:26;26;20;
55591;PMS5003;41454;53.396;-1.510;2022-11-12T14:37:57;26;25;
55591;PMS5003;41454;53.396;-1.510;2022-11-12T14:40:30;28;26;
55591;PMS5003;41454;53.396;-1.510;2022-11-12T14:42:59;22;22;
55591;PMS5003;41454;53.396;-1.510;2022-11-12T14:45:26;31;28;
55591;PMS5003;41454;53.396;-1.510;2022-11-12T14:47:53;29;25;
55591;PMS5003;41454;53.396;-1.510;2022-11-12T14:50:23;24;24;
55591;PMS5003;41454;53.396;-1.510;2022-11-12T14:52:54;26;23;
55591;PMS5003;41454;53.396;-1.510;2022-11-12T14:55:32;30;30;
55591;PMS5003;41454;53.396;-1.510;2022-11-12T14:58:02;29;26;
55591;PMS5003;41454;53.396;-1.510;2022-11-12T15:00:39;31;29;
55591;PMS5003;41454;53.396;-1.510;2022-11-12T15:03:12;32;31;
55591;PMS5003;41454;53.396;-1.510;2022-11-12T15:05:51;35;34;
55591;PMS5003;41454;53.396;-1.510;2022-11-12T15:08:30;30;30;
55591;PMS5003;41454;53.396;-1.510;2022-11-12T15:11:32;27;26;
55591;PMS5003;41454;53.396;-1.510;2022-11-12T15:14:01;30;30;
55591;PMS5003;41454;53.396;-1.510;2022-11-12T15:16:31;35;34;
55591;PMS5003;41454;53.396;-1.510;2022-11-12T15:19:02;38;34;
55591;PMS5003;41454;53.396;-1.510;2022-11-12T15:21:32;37;31;
55591;PMS5003;41454;53.396;-1.510;2022-11-12T15:24:03;34;32;
55591;PMS5003;41454;53.396;-1.510;2022-11-12T15:26:33;36;34;
55591;PMS5003;41454;53.396;-1.510;2022-11-12T15:29:12;36;31;
55591;PMS5003;41454;53.396;-1.510;2022-11-12T15:31:49;39;39;
55591;PMS5003;41454;53.396;-1.510;2022-11-12T15:34:52;35;29;
55591;PMS5003;41454;53.396;-1.510;2022-11-12T15:37:21;34;33;
55591;PMS5003;41454;53.396;-1.510;2022-11-12T15:39:50;30;30;
55591;PMS5003;41454;53.396;-1.510;2022-11-12T15:42:26;38;36;
55591;PMS5003;41454;53.396;-1.510;2022-11-12T15:44:56;41;35;
55591;PMS5003;41454;53.396;-1.510;2022-11-12T15:47:25;39;36;
55591;PMS5003;41454;53.396;-1.510;2022-11-12T15:49:53;35;34;
55591;PMS5003;41454;53.396;-1.510;2022-11-12T15:52:22;39;36;
55591;PMS5003;41454;53.396;-1.510;2022-11-12T15:54:49;38;36;
55591;PMS5003;41454;53.396;-1.510;2022-11-12T15:57:20;40;40;
55591;PMS5003;41454;53.396;-1.510;2022-11-12T15:59:52;41;41;
55591;PMS5003;41454;53.396;-1.510;2022-11-12T16:02:22;47;42;
55591;PMS5003;41454;53.396;-1.510;2022-11-12T16:04:50;52;46;
55591;PMS5003;41454;53.396;-1.510;2022-11-12T16:07:17;43;40;
55591;PMS5003;41454;53.396;-1.510;2022-11-12T16:09:44;52;50;
55591;PMS5003;41454;53.396;-1.510;2022-11-12T16:12:12;54;53;
55591;PMS5003;41454;53.396;-1.510;2022-11-12T16:14:40;62;55;
55591;PMS5003;41454;53.396;-1.510;2022-11-12T16:17:09;50;44;
55591;PMS5003;41454;53.396;-1.510;2022-11-12T16:19:39;46;45;
55591;PMS5003;41454;53.396;-1.510;2022-11-12T16:22:06;50;45;
55591;PMS5003;41454;53.396;-1.510;2022-11-12T16:24:33;40;37;
55591;PMS5003;41454;53.396;-1.510;2022-11-12T16:27:00;42;40;
55591;PMS5003;41454;53.396;-1.510;2022-11-12T16:29:29;47;44;
55591;PMS5003;41454;53.396;-1.510;2022-11-12T16:31:55;49;47;
55591;PMS5003;41454;53.396;-1.510;2022-11-12T16:34:23;44;43;
55591;PMS5003;41454;53.396;-1.510;2022-11-12T16:36:50;50;47;
55591;PMS5003;41454;53.396;-1.510;2022-11-12T16:39:17;50;45;
55591;PMS5003;41454;53.396;-1.510;2022-11-12T16:41:44;45;41;
55591;PMS5003;41454;53.396;-1.510;2022-11-12T16:44:25;50;43;
55591;PMS5003;41454;53.396;-1.510;2022-11-12T16:46:52;56;51;
55591;PMS5003;41454;53.396;-1.510;2022-11-12T16:49:26;59;57;
55591;PMS5003;41454;53.396;-1.510;2022-11-12T16:56:10;54;47;
55591;PMS5003;41454;53.396;-1.510;2022-11-12T17:00:14;55;50;
55591;PMS5003;41454;53.396;-1.510;2022-11-12T17:02:43;56;52;
55591;PMS5003;41454;53.396;-1.510;2022-11-12T17:05:13;63;58;
55591;PMS5003;41454;53.396;-1.510;2022-11-12T17:07:45;52;51;
55591;PMS5003;41454;53.396;-1.510;2022-11-12T17:10:13;54;51;
55591;PMS5003;41454;53.396;-1.510;2022-11-12T17:12:41;55;52;
55591;PMS5003;41454;53.396;-1.510;2022-11-12T17:15:08;57;50;
55591;PMS5003;41454;53.396;-1.510;2022-11-12T17:17:36;62;54;
55591;PMS5003;41454;53.396;-1.510;2022-11-12T17:20:03;75;68;
55591;PMS5003;41454;53.396;-1.510;2022-11-12T17:22:32;63;60;
55591;PMS5003;41454;53.396;-1.510;2022-11-12T17:25:00;68;60;
55591;PMS5003;41454;53.396;-1.510;2022-11-12T17:27:26;115;107;
55591;PMS5003;41454;53.396;-1.510;2022-11-12T17:29:53;109;94;
55591;PMS5003;41454;53.396;-1.510;2022-11-12T17:32:20;83;74;
55591;PMS5003;41454;53.396;-1.510;2022-11-12T17:34:48;71;66;
55591;PMS5003;41454;53.396;-1.510;2022-11-12T17:37:15;65;61;
55591;PMS5003;41454;53.396;-1.510;2022-11-12T17:39:42;57;54;
55591;PMS5003;41454;53.396;-1.510;2022-11-12T17:42:10;53;51;
55591;PMS5003;41454;53.396;-1.510;2022-11-12T17:44:37;54;52;
55591;PMS5003;41454;53.396;-1.510;2022-11-12T17:47:04;56;50;
55591;PMS5003;41454;53.396;-1.510;2022-11-12T17:49:38;56;53;
55591;PMS5003;41454;53.396;-1.510;2022-11-12T17:52:05;60;56;
55591;PMS5003;41454;53.396;-1.510;2022-11-12T17:54:32;57;54;
55591;PMS5003;41454;53.396;-1.510;2022-11-12T17:56:59;50;46;
55591;PMS5003;41454;53.396;-1.510;2022-11-12T17:59:26;60;56;
55591;PMS5003;41454;53.396;-1.510;2022-11-12T18:01:53;72;70;
55591;PMS5003;41454;53.396;-1.510;2022-11-12T18:04:21;64;62;
55591;PMS5003;41454;53.396;-1.510;2022-11-12T18:07:01;60;59;
55591;PMS5003;41454;53.396;-1.510;2022-11-12T18:09:28;67;62;
55591;PMS5003;41454;53.396;-1.510;2022-11-12T18:11:55;69;65;
55591;PMS5003;41454;53.396;-1.510;2022-11-12T18:14:23;71;64;
55591;PMS5003;41454;53.396;-1.510;2022-11-12T18:16:50;66;63;
55591;PMS5003;41454;53.396;-1.510;2022-11-12T18:19:17;84;79;
55591;PMS5003;41454;53.396;-1.510;2022-11-12T18:21:45;87;83;
55591;PMS5003;41454;53.396;-1.510;2022-11-12T18:24:13;79;76;
55591;PMS5003;41454;53.396;-1.510;2022-11-12T18:26:40;81;77;
55591;PMS5003;41454;53.396;-1.510;2022-11-12T18:29:07;72;70;
55591;PMS5003;41454;53.396;-1.510;2022-11-12T18:31:34;77;70;
55591;PMS5003;41454;53.396;-1.510;2022-11-12T18:34:01;72;69;
55591;PMS5003;41454;53.396;-1.510;2022-11-12T18:36:28;76;73;
55591;PMS5003;41454;53.396;-1.510;2022-11-12T18:38:55;88;82;
55591;PMS5003;41454;53.396;-1.510;2022-11-12T18:41:23;83;79;
55591;PMS5003;41454;53.396;-1.510;2022-11-12T18:43:51;83;80;
55591;PMS5003;41454;53.396;-1.510;2022-11-12T18:46:19;86;83;
55591;PMS5003;41454;53.396;-1.510;2022-11-12T18:48:47;91;86;
55591;PMS5003;41454;53.396;-1.510;2022-11-12T18:51:15;92;88;
55591;PMS5003;41454;53.396;-1.510;2022-11-12T18:53:53;94;85;
55591;PMS5003;41454;53.396;-1.510;2022-11-12T18:56:20;92;84;
55591;PMS5003;41454;53.396;-1.510;2022-11-12T18:58:48;91;87;
55591;PMS5003;41454;53.396;-1.510;2022-11-12T19:01:16;96;92;
55591;PMS5003;41454;53.396;-1.510;2022-11-12T19:03:45;100;95;
55591;PMS5003;41454;53.396;-1.510;2022-11-12T19:06:12;104;90;
55591;PMS5003;41454;53.396;-1.510;2022-11-12T19:08:39;90;86;
55591;PMS5003;41454;53.396;-1.510;2022-11-12T19:11:09;208;184;
55591;PMS5003;41454;53.396;-1.510;2022-11-12T19:13:38;122;112;
55591;PMS5003;41454;53.396;-1.510;2022-11-12T19:16:08;115;106;
55591;PMS5003;41454;53.396;-1.510;2022-11-12T19:18:37;124;115;
55591;PMS5003;41454;53.396;-1.510;2022-11-12T19:21:07;109;102;
55591;PMS5003;41454;53.396;-1.510;2022-11-12T19:23:36;107;101;
55591;PMS5003;41454;53.396;-1.510;2022-11-12T19:26:04;108;99;
55591;PMS5003;41454;53.396;-1.510;2022-11-12T19:28:33;103;92;
55591;PMS5003;41454;53.396;-1.510;2022-11-12T19:31:01;82;75;
55591;PMS5003;41454;53.396;-1.510;2022-11-12T19:33:29;70;69;
55591;PMS5003;41454;53.396;-1.510;2022-11-12T19:35:56;75;65;
55591;PMS5003;41454;53.396;-1.510;2022-11-12T19:38:24;73;63;
55591;PMS5003;41454;53.396;-1.510;2022-11-12T19:40:50;76;71;
55591;PMS5003;41454;53.396;-1.510;2022-11-12T19:43:17;81;74;
55591;PMS5003;41454;53.396;-1.510;2022-11-12T19:45:44;75;69;
55591;PMS5003;41454;53.396;-1.510;2022-11-12T19:48:11;81;75;
55591;PMS5003;41454;53.396;-1.510;2022-11-12T19:50:39;84;76;
55591;PMS5003;41454;53.396;-1.510;2022-11-12T19:53:06;77;73;
55591;PMS5003;41454;53.396;-1.510;2022-11-12T19:55:33;77;71;
55591;PMS5003;41454;53.396;-1.510;2022-11-12T19:58:00;76;71;
55591;PMS5003;41454;53.396;-1.510;2022-11-12T20:00:26;73;66;
55591;PMS5003;41454;53.396;-1.510;2022-11-12T20:02:53;84;75;
55591;PMS5003;41454;53.396;-1.510;2022-11-12T20:05:21;79;69;
55591;PMS5003;41454;53.396;-1.510;2022-11-12T20:07:48;70;67;
55591;PMS5003;41454;53.396;-1.510;2022-11-12T20:10:17;80;79;
55591;PMS5003;41454;53.396;-1.510;2022-11-12T20:12:44;78;71;
55591;PMS5003;41454;53.396;-1.510;2022-11-12T20:15:12;81;80;
55591;PMS5003;41454;53.396;-1.510;2022-11-12T20:17:38;76;71;
55591;PMS5003;41454;53.396;-1.510;2022-11-12T20:20:06;72;68;
55591;PMS5003;41454;53.396;-1.510;2022-11-12T20:22:33;71;64;
55591;PMS5003;41454;53.396;-1.510;2022-11-12T20:25:00;68;62;
55591;PMS5003;41454;53.396;-1.510;2022-11-12T20:27:27;71;65;
55591;PMS5003;41454;53.396;-1.510;2022-11-12T20:29:54;72;61;
55591;PMS5003;41454;53.396;-1.510;2022-11-12T20:32:21;80;75;
55591;PMS5003;41454;53.396;-1.510;2022-11-12T20:34:48;70;63;
55591;PMS5003;41454;53.396;-1.510;2022-11-12T20:37:15;69;64;
55591;PMS5003;41454;53.396;-1.510;2022-11-12T20:39:42;76;62;
55591;PMS5003;41454;53.396;-1.510;2022-11-12T20:42:10;69;63;
55591;PMS5003;41454;53.396;-1.510;2022-11-12T20:44:36;77;67;
55591;PMS5003;41454;53.396;-1.510;2022-11-12T20:47:03;69;62;
55591;PMS5003;41454;53.396;-1.510;2022-11-12T20:49:30;71;63;
55591;PMS5003;41454;53.396;-1.510;2022-11-12T20:51:57;66;65;
55591;PMS5003;41454;53.396;-1.510;2022-11-12T20:54:24;73;65;
55591;PMS5003;41454;53.396;-1.510;2022-11-12T20:56:51;72;64;
55591;PMS5003;41454;53.396;-1.510;2022-11-12T20:59:19;71;69;
55591;PMS5003;41454;53.396;-1.510;2022-11-12T21:07:14;71;68;
55591;PMS5003;41454;53.396;-1.510;2022-11-12T21:09:41;69;63;
55591;PMS5003;41454;53.396;-1.510;2022-11-12T21:12:09;72;65;
55591;PMS5003;41454;53.396;-1.510;2022-11-12T21:14:36;62;60;
55591;PMS5003;41454;53.396;-1.510;2022-11-12T21:17:04;60;60;
55591;PMS5003;41454;53.396;-1.510;2022-11-12T21:19:31;69;66;
55591;PMS5003;41454;53.396;-1.510;2022-11-12T21:21:58;67;58;
55591;PMS5003;41454;53.396;-1.510;2022-11-12T21:24:34;63;60;
55591;PMS5003;41454;53.396;-1.510;2022-11-12T21:27:01;57;54;
55591;PMS5003;41454;53.396;-1.510;2022-11-12T21:29:28;54;50;
55591;PMS5003;41454;53.396;-1.510;2022-11-12T21:31:55;52;48;
55591;PMS5003;41454;53.396;-1.510;2022-11-12T21:34:22;56;50;
55591;PMS5003;41454;53.396;-1.510;2022-11-12T21:36:49;56;52;
55591;PMS5003;41454;53.396;-1.510;2022-11-12T21:39:17;56;51;
55591;PMS5003;41454;53.396;-1.510;2022-11-12T21:41:44;49;48;
55591;PMS5003;41454;53.396;-1.510;2022-11-12T21:44:11;50;44;
55591;PMS5003;41454;53.396;-1.510;2022-11-12T21:46:37;49;43;
55591;PMS5003;41454;53.396;-1.510;2022-11-12T21:49:05;52;47;
55591;PMS5003;41454;53.396;-1.510;2022-11-12T21:51:32;45;40;
55591;PMS5003;41454;53.396;-1.510;2022-11-12T21:53:59;45;38;
55591;PMS5003;41454;53.396;-1.510;2022-11-12T21:56:28;44;42;
55591;PMS5003;41454;53.396;-1.510;2022-11-12T21:58:56;41;41;
55591;PMS5003;41454;53.396;-1.510;2022-11-12T22:01:25;43;41;
55591;PMS5003;41454;53.396;-1.510;2022-11-12T22:03:55;43;41;
55591;PMS5003;41454;53.396;-1.510;2022-11-12T22:06:24;37;37;
55591;PMS5003;41454;53.396;-1.510;2022-11-12T22:08:52;39;36;
55591;PMS5003;41454;53.396;-1.510;2022-11-12T22:11:20;45;39;
55591;PMS5003;41454;53.396;-1.510;2022-11-12T22:13:48;40;38;
55591;PMS5003;41454;53.396;-1.510;2022-11-12T22:16:16;36;33;
55591;PMS5003;41454;53.396;-1.510;2022-11-12T22:18:46;47;41;
55591;PMS5003;41454;53.396;-1.510;2022-11-12T22:21:14;40;39;
55591;PMS5003;41454;53.396;-1.510;2022-11-12T22:23:43;44;42;
55591;PMS5003;41454;53.396;-1.510;2022-11-12T22:26:12;43;36;
55591;PMS5003;41454;53.396;-1.510;2022-11-12T22:28:40;39;37;
55591;PMS5003;41454;53.396;-1.510;2022-11-12T22:31:09;39;35;
55591;PMS5003;41454;53.396;-1.510;2022-11-12T22:33:37;44;41;
55591;PMS5003;41454;53.396;-1.510;2022-11-12T22:36:06;36;32;
55591;PMS5003;41454;53.396;-1.510;2022-11-12T22:38:35;34;30;
55591;PMS5003;41454;53.396;-1.510;2022-11-12T22:41:04;34;34;
55591;PMS5003;41454;53.396;-1.510;2022-11-12T22:43:33;35;33;
55591;PMS5003;41454;53.396;-1.510;2022-11-12T22:46:02;36;34;
55591;PMS5003;41454;53.396;-1.510;2022-11-12T22:48:31;37;35;
55591;PMS5003;41454;53.396;-1.510;2022-11-12T22:50:58;34;33;
55591;PMS5003;41454;53.396;-1.510;2022-11-12T22:53:26;40;38;
55591;PMS5003;41454;53.396;-1.510;2022-11-12T22:55:53;39;36;
55591;PMS5003;41454;53.396;-1.510;2022-11-12T22:58:20;44;40;
55591;PMS5003;41454;53.396;-1.510;2022-11-12T23:00:47;42;41;
55591;PMS5003;41454;53.396;-1.510;2022-11-12T23:03:15;34;32;
55591;PMS5003;41454;53.396;-1.510;2022-11-12T23:05:42;35;33;
55591;PMS5003;41454;53.396;-1.510;2022-11-12T23:08:09;37;34;
55591;PMS5003;41454;53.396;-1.510;2022-11-12T23:10:37;34;31;
55591;PMS5003;41454;53.396;-1.510;2022-11-12T23:13:05;46;43;
55591;PMS5003;41454;53.396;-1.510;2022-11-12T23:15:32;37;35;
55591;PMS5003;41454;53.396;-1.510;2022-11-12T23:17:59;33;32;
55591;PMS5003;41454;53.396;-1.510;2022-11-12T23:20:26;39;37;
55591;PMS5003;41454;53.396;-1.510;2022-11-12T23:22:53;39;37;
55591;PMS5003;41454;53.396;-1.510;2022-11-12T23:25:20;35;34;
55591;PMS5003;41454;53.396;-1.510;2022-11-12T23:27:47;39;38;
55591;PMS5003;41454;53.396;-1.510;2022-11-12T23:30:15;40;35;
55591;PMS5003;41454;53.396;-1.510;2022-11-12T23:32:42;38;35;
55591;PMS5003;41454;53.396;-1.510;2022-11-12T23:35:09;37;34;
55591;PMS5003;41454;53.396;-1.510;2022-11-12T23:37:37;38;36;
55591;PMS5003;41454;53.396;-1.510;2022-11-12T23:40:04;34;31;
55591;PMS5003;41454;53.396;-1.510;2022-11-12T23:42:32;42;39;
55591;PMS5003;41454;53.396;-1.510;2022-11-12T23:44:59;42;39;
55591;PMS5003;41454;53.396;-1.510;2022-11-12T23:47:26;40;31;
55591;PMS5003;41454;53.396;-1.510;2022-11-12T23:49:54;40;36;
55591;PMS5003;41454;53.396;-1.510;2022-11-12T23:52:21;41;38;
55591;PMS5003;41454;53.396;-1.510;2022-11-12T23:54:49;46;46;
55591;PMS5003;41454;53.396;-1.510;2022-11-12T23:57:16;61;58;
55591;PMS5003;41454;53.396;-1.510;2022-11-12T23:59:43;78;72;
